Time;durP1;ratioP1;P1;durP2;ratioP2;P2;SDS_P1;SDS_P2;PMS_P1;PMS_P2;Temp;Humidity;BMP_temperature;BMP_pressure;BME280_temperature;BME280_humidity;BME280_pressure;Samples;Min_cycle;Max_cycle;Signal;HPM_P1;HPM_P2
2023/03/05 00:01:24;;;;;;;9.33;4.53;;;;;5.00;101785.00;;;;9626860;30;20235;-79
2023/03/05 00:06:28;;;;;;;11.17;4.47;;;;;5.00;101779.00;;;;9625816;30;20279;-79
2023/03/05 00:11:32;;;;;;;6.77;4.17;;;;;5.00;101777.00;;;;9654461;30;20311;-79
2023/03/05 00:16:34;;;;;;;5.73;4.13;;;;;4.90;101766.00;;;;9640077;30;20685;-79
2023/03/05 00:21:38;;;;;;;8.40;3.97;;;;;4.90;101765.00;;;;9639579;30;20208;-79
2023/03/05 00:26:41;;;;;;;7.47;4.03;;;;;4.90;101761.00;;;;9618339;30;20212;-79
2023/03/05 00:31:44;;;;;;;6.60;3.40;;;;;4.90;101760.00;;;;9654297;30;20546;-79
2023/03/05 00:36:48;;;;;;;6.70;3.30;;;;;4.90;101763.00;;;;9634146;30;20212;-79
2023/03/05 00:41:51;;;;;;;6.87;3.50;;;;;4.90;101751.00;;;;9653589;30;20635;-79
2023/03/05 00:46:53;;;;;;;5.97;3.60;;;;;4.90;101738.00;;;;9653480;30;20291;-79
2023/03/05 00:51:55;;;;;;;9.80;4.10;;;;;4.80;101738.00;;;;9638614;30;20248;-79
2023/03/05 00:56:58;;;;;;;5.53;3.37;;;;;4.80;101737.00;;;;9638082;30;20211;-79
2023/03/05 01:02:00;;;;;;;7.10;3.40;;;;;4.80;101735.00;;;;9638325;30;20235;-79
2023/03/05 01:07:03;;;;;;;6.93;3.50;;;;;4.80;101735.00;;;;9621481;30;20208;-79
2023/03/05 01:12:06;;;;;;;12.50;3.73;;;;;4.80;101728.00;;;;9651693;30;20698;-79
2023/03/05 01:17:08;;;;;;;8.17;4.30;;;;;4.80;101713.00;;;;9641633;30;20201;-79
2023/03/05 01:22:10;;;;;;;6.10;4.13;;;;;4.70;101710.00;;;;9614469;30;20255;-79
2023/03/05 01:27:12;;;;;;;8.60;4.47;;;;;4.70;101693.00;;;;9651579;30;20208;-79
2023/03/05 01:32:14;;;;;;;6.67;4.17;;;;;4.60;101687.00;;;;9637593;30;20240;-79
2023/03/05 01:37:16;;;;;;;9.17;4.53;;;;;4.60;101680.00;;;;9637603;30;20711;-79
2023/03/05 01:42:19;;;;;;;10.07;5.00;;;;;4.60;101671.00;;;;9650856;30;20262;-79
2023/03/05 01:47:21;;;;;;;9.47;4.77;;;;;4.60;101670.00;;;;9631687;30;20290;-80
2023/03/05 01:52:26;;;;;;;11.53;5.33;;;;;4.50;101664.00;;;;9611500;30;20236;-79
2023/03/05 01:57:33;;;;;;;10.20;5.27;;;;;4.50;101664.00;;;;9653163;30;20212;-79
2023/03/05 02:02:36;;;;;;;8.20;5.50;;;;;4.40;101654.00;;;;9619843;30;20216;-80
2023/03/05 02:07:41;;;;;;;10.23;5.10;;;;;4.40;101645.00;;;;9619305;30;20219;-79
2023/03/05 02:12:43;;;;;;;9.37;4.73;;;;;4.40;101632.00;;;;9652144;30;20205;-79
2023/03/05 02:17:45;;;;;;;12.17;4.80;;;;;4.30;101638.00;;;;9654328;30;20208;-79
2023/03/05 02:22:47;;;;;;;9.07;5.53;;;;;4.30;101628.00;;;;9652523;30;20219;-79
2023/03/05 02:28:02;;;;;;;10.63;5.87;;;;;4.30;101628.00;;;;9651330;30;20220;-79
2023/03/05 02:33:04;;;;;;;10.20;5.63;;;;;4.30;101630.00;;;;9637438;30;20558;-80
2023/03/05 02:38:06;;;;;;;9.33;5.63;;;;;4.30;101617.00;;;;9637068;30;20742;-81
2023/03/05 02:43:09;;;;;;;13.50;5.83;;;;;4.30;101612.00;;;;9610593;30;20209;-80
2023/03/05 02:48:11;;;;;;;11.77;6.03;;;;;4.30;101605.00;;;;9622969;30;20590;-80
2023/03/05 02:53:13;;;;;;;13.33;5.90;;;;;4.20;101603.00;;;;9636715;30;20217;-80
2023/03/05 02:58:16;;;;;;;9.33;5.53;;;;;4.20;101598.00;;;;9641188;30;20263;-80
2023/03/05 03:03:18;;;;;;;10.33;5.87;;;;;4.20;101600.00;;;;9608507;30;20217;-79
2023/03/05 03:08:20;;;;;;;12.67;6.60;;;;;4.20;101587.00;;;;9630177;30;20221;-80
2023/03/05 03:13:24;;;;;;;12.83;6.80;;;;;4.20;101580.00;;;;9637038;30;20676;-80
2023/03/05 03:18:26;;;;;;;13.27;6.57;;;;;4.20;101573.00;;;;9616957;30;20295;-79
2023/03/05 03:23:28;;;;;;;11.90;5.87;;;;;4.20;101570.00;;;;9634625;30;20325;-80
2023/03/05 03:28:32;;;;;;;8.47;5.30;;;;;4.20;101565.00;;;;9615560;30;20637;-80
2023/03/05 03:33:34;;;;;;;7.80;5.37;;;;;4.20;101560.00;;;;9642749;30;20299;-80
2023/03/05 03:38:36;;;;;;;11.43;4.90;;;;;4.20;101566.00;;;;9627187;30;20217;-79
2023/03/05 03:43:38;;;;;;;7.30;4.60;;;;;4.10;101545.00;;;;9626328;30;20236;-80
2023/03/05 03:48:40;;;;;;;10.43;4.90;;;;;4.10;101544.00;;;;9655646;30;20774;-79
2023/03/05 03:53:42;;;;;;;7.80;4.83;;;;;4.10;101529.00;;;;9657750;30;20867;-79
2023/03/05 03:58:44;;;;;;;9.33;5.10;;;;;4.10;101523.00;;;;9631908;30;20249;-79
2023/03/05 04:03:46;;;;;;;14.40;5.00;;;;;4.10;101517.00;;;;9651876;30;20201;-80
2023/03/05 04:08:48;;;;;;;12.47;5.03;;;;;4.10;101506.00;;;;9619995;30;20240;-79
2023/03/05 04:13:50;;;;;;;11.07;5.67;;;;;4.10;101501.00;;;;9620112;30;20212;-79
2023/03/05 04:18:54;;;;;;;8.27;5.43;;;;;4.10;101499.00;;;;9657088;30;20212;-79
2023/03/05 04:23:56;;;;;;;10.63;5.27;;;;;4.00;101492.00;;;;9654820;30;20205;-79
2023/03/05 04:28:58;;;;;;;8.43;5.20;;;;;4.00;101494.00;;;;9643401;30;20223;-79
2023/03/05 04:34:01;;;;;;;12.60;5.70;;;;;3.90;101492.00;;;;9640896;30;20220;-79
2023/03/05 04:39:03;;;;;;;16.53;6.53;;;;;3.90;101491.00;;;;9638671;30;20204;-79
2023/03/05 04:44:05;;;;;;;8.90;5.60;;;;;3.90;101484.00;;;;9654139;30;20255;-80
2023/03/05 04:49:07;;;;;;;13.70;6.40;;;;;3.90;101473.00;;;;9625697;30;20227;-79
2023/03/05 04:54:09;;;;;;;9.83;5.70;;;;;3.80;101474.00;;;;9650434;30;20204;-80
2023/03/05 04:59:12;;;;;;;10.33;6.30;;;;;3.80;101481.00;;;;9618444;30;20347;-79
2023/03/05 05:04:14;;;;;;;11.90;6.50;;;;;3.80;101478.00;;;;9604557;30;20217;-80
2023/03/05 05:09:16;;;;;;;8.83;5.77;;;;;3.80;101469.00;;;;9633711;30;20221;-79
2023/03/05 05:14:18;;;;;;;17.57;6.27;;;;;3.80;101460.00;;;;9639489;30;20228;-80
2023/03/05 05:19:20;;;;;;;11.30;5.50;;;;;3.80;101462.00;;;;9635724;30;20211;-80
2023/03/05 05:24:23;;;;;;;10.43;5.70;;;;;3.80;101457.00;;;;9646589;30;20212;-79
2023/03/05 05:29:25;;;;;;;9.10;5.50;;;;;3.80;101454.00;;;;9652521;30;20244;-80
2023/03/05 05:34:27;;;;;;;10.73;6.87;;;;;3.80;101450.00;;;;9638663;30;20216;-80
2023/03/05 05:39:29;;;;;;;11.50;6.50;;;;;3.80;101441.00;;;;9637677;30;20204;-80
2023/03/05 05:44:33;;;;;;;9.23;6.37;;;;;3.80;101441.00;;;;9629639;30;20675;-79
2023/03/05 05:49:35;;;;;;;12.90;6.53;;;;;3.80;101438.00;;;;9589209;30;20303;-79
2023/03/05 05:54:38;;;;;;;11.13;6.00;;;;;3.80;101423.00;;;;9616932;30;20209;-80
2023/03/05 05:59:40;;;;;;;13.13;6.00;;;;;3.80;101426.00;;;;9631442;30;20234;-79
2023/03/05 06:04:42;;;;;;;10.43;5.87;;;;;3.80;101430.00;;;;9638492;30;20303;-79
2023/03/05 06:09:44;;;;;;;11.07;6.50;;;;;3.80;101433.00;;;;9616392;30;20227;-79
2023/03/05 06:14:46;;;;;;;12.10;6.17;;;;;3.90;101429.00;;;;9616795;30;20212;-80
2023/03/05 06:19:48;;;;;;;9.63;5.50;;;;;3.90;101425.00;;;;9653077;30;20211;-79
2023/03/05 06:24:50;;;;;;;12.70;6.33;;;;;4.00;101438.00;;;;9686888;30;20612;-79
2023/03/05 06:29:55;;;;;;;19.43;6.70;;;;;4.00;101424.00;;;;9640083;30;20238;-79
2023/03/05 06:34:57;;;;;;;13.70;7.10;;;;;4.10;101419.00;;;;9635977;30;20551;-79
2023/03/05 06:39:59;;;;;;;14.50;7.17;;;;;4.10;101418.00;;;;9636969;30;20216;-80
2023/03/05 06:45:01;;;;;;;14.87;7.87;;;;;4.20;101418.00;;;;9650888;30;20208;-80
2023/03/05 06:50:04;;;;;;;13.10;8.20;;;;;4.30;101424.00;;;;9620423;30;20331;-80
2023/03/05 06:55:07;;;;;;;14.10;8.27;;;;;4.30;101410.00;;;;9631236;30;20678;-80
2023/03/05 07:00:10;;;;;;;11.00;8.17;;;;;4.50;101420.00;;;;9642870;30;20236;-80
2023/03/05 07:05:12;;;;;;;12.57;8.33;;;;;4.50;101414.00;;;;9657629;30;20219;-80
2023/03/05 07:10:14;;;;;;;9.67;6.90;;;;;4.60;101403.00;;;;9643723;30;20216;-80
2023/03/05 07:15:16;;;;;;;11.53;7.70;;;;;4.70;101413.00;;;;9630318;30;20212;-80
2023/03/05 07:20:19;;;;;;;15.17;8.40;;;;;4.80;101401.00;;;;9664310;30;20676;-80
2023/03/05 07:25:23;;;;;;;13.47;7.10;;;;;5.00;101401.00;;;;9632146;30;20262;-80
2023/03/05 07:30:25;;;;;;;8.80;6.63;;;;;5.20;101394.00;;;;9627257;30;20753;-81
2023/03/05 07:35:27;;;;;;;8.87;5.83;;;;;5.30;101394.00;;;;9642929;30;20208;-79
2023/03/05 07:40:29;;;;;;;9.67;5.80;;;;;5.50;101396.00;;;;9628549;30;20216;-80
2023/03/05 07:45:31;;;;;;;8.97;5.73;;;;;5.80;101390.00;;;;9627832;30;20202;-80
2023/03/05 07:50:33;;;;;;;9.20;5.33;;;;;6.20;101389.00;;;;9656109;30;20256;-80
2023/03/05 07:55:41;;;;;;;12.60;6.30;;;;;6.50;101385.00;;;;9642219;30;20213;-80
2023/03/05 08:00:43;;;;;;;9.80;5.70;;;;;6.60;101382.00;;;;9630799;30;20244;-80
2023/03/05 08:05:45;;;;;;;11.13;6.20;;;;;6.50;101382.00;;;;9634348;30;20932;-80
2023/03/05 08:10:47;;;;;;;9.23;6.00;;;;;6.60;101381.00;;;;9641817;30;20573;-80
2023/03/05 08:15:50;;;;;;;9.30;5.67;;;;;6.90;101378.00;;;;9655335;30;20263;-80
2023/03/05 08:20:52;;;;;;;7.70;5.47;;;;;7.20;101374.00;;;;9648610;30;20666;-80
2023/03/05 08:25:54;;;;;;;6.70;4.93;;;;;7.40;101368.00;;;;9640596;30;20240;-80
2023/03/05 08:30:56;;;;;;;6.70;4.63;;;;;7.50;101366.00;;;;9626743;30;20221;-80
2023/03/05 08:35:58;;;;;;;5.97;4.63;;;;;7.30;101359.00;;;;9631974;30;20620;-79
2023/03/05 08:41:00;;;;;;;5.20;4.47;;;;;7.20;101364.00;;;;9627776;30;20573;-79
2023/03/05 08:46:02;;;;;;;5.77;3.93;;;;;7.00;101352.00;;;;9641978;30;20212;-80
2023/03/05 08:51:06;;;;;;;6.03;3.93;;;;;6.60;101349.00;;;;9626686;30;20228;-80
2023/03/05 08:56:09;;;;;;;5.37;4.73;;;;;6.20;101351.00;;;;9652625;30;20208;-80
2023/03/05 09:01:12;;;;;;;7.60;4.77;;;;;5.80;101352.00;;;;9649174;30;20255;-80
2023/03/05 09:06:14;;;;;;;9.13;6.20;;;;;5.20;101346.00;;;;9654592;30;20645;-79
2023/03/05 09:11:16;;;;;;;10.83;9.20;;;;;5.10;101344.00;;;;9652529;30;20814;-79
2023/03/05 09:16:19;;;;;;;12.30;7.03;;;;;4.80;101342.00;;;;9652082;30;20696;-79
2023/03/05 09:21:21;;;;;;;12.53;7.20;;;;;4.60;101343.00;;;;9639601;30;20196;-79
2023/03/05 09:26:24;;;;;;;12.00;8.33;;;;;4.70;101341.00;;;;9639480;30;20208;-79
2023/03/05 09:31:26;;;;;;;10.87;8.60;;;;;5.00;101332.00;;;;9624906;30;20213;-78
2023/03/05 09:36:30;;;;;;;10.80;7.17;;;;;5.70;101328.00;;;;9626179;30;20220;-78
2023/03/05 09:42:18;;;;;;;12.73;10.50;;;;;6.30;101320.00;;;;9651954;30;20266;-78
2023/03/05 09:47:51;;;;;;;7.30;6.13;;;;;6.50;101310.00;;;;9627372;30;20217;-78
2023/03/05 09:52:57;;;;;;;7.50;5.70;;;;;6.30;101313.00;;;;9603462;30;20221;-78
2023/03/05 09:58:39;;;;;;;5.07;4.57;;;;;6.50;101312.00;;;;9608308;30;20236;-78
2023/03/05 10:04:09;;;;;;;8.93;5.80;;;;;7.00;101320.00;;;;9615436;30;20282;-78
2023/03/05 10:09:21;;;;;;;4.53;3.37;;;;;7.40;101306.00;;;;9637560;30;20216;-79
2023/03/05 10:14:33;;;;;;;3.50;3.07;;;;;7.40;101301.00;;;;9622583;30;20247;-78
2023/03/05 10:20:12;;;;;;;4.73;3.10;;;;;7.80;101298.00;;;;9631559;30;20209;-79
2023/03/05 10:25:29;;;;;;;2.93;2.60;;;;;7.60;101291.00;;;;9593241;30;20209;-79
2023/03/05 10:30:37;;;;;;;3.30;2.67;;;;;7.30;101290.00;;;;9622683;30;20216;-79
2023/03/05 10:35:50;;;;;;;4.07;3.47;;;;;7.50;101284.00;;;;9637532;30;20208;-79
2023/03/05 10:40:54;;;;;;;4.47;3.60;;;;;7.20;101279.00;;;;9635155;30;20213;-79
2023/03/05 10:45:57;;;;;;;4.80;3.23;;;;;7.30;101282.00;;;;9616069;30;20223;-79
2023/03/05 10:51:14;;;;;;;3.47;2.80;;;;;7.90;101276.00;;;;9657188;30;20231;-79
2023/03/05 10:56:20;;;;;;;4.83;2.80;;;;;8.40;101268.00;;;;9643095;30;20215;-79
2023/03/05 11:01:24;;;;;;;3.43;1.87;;;;;8.90;101262.00;;;;9597826;30;20748;-79
2023/03/05 11:06:32;;;;;;;2.13;1.63;;;;;8.80;101254.00;;;;9645055;30;20204;-79
2023/03/05 11:11:34;;;;;;;1.33;0.70;;;;;9.10;101248.00;;;;9642405;30;20225;-79
2023/03/05 11:16:48;;;;;;;2.07;1.00;;;;;8.90;101226.00;;;;9645118;30;20211;-79
2023/03/05 11:22:14;;;;;;;1.23;0.90;;;;;9.60;101216.00;;;;9656683;30;20204;-79
2023/03/05 11:27:35;;;;;;;2.67;1.13;;;;;9.80;101214.00;;;;9657720;30;20913;-78
2023/03/05 11:32:37;;;;;;;3.10;1.00;;;;;10.30;101209.00;;;;9621199;30;20303;-80
2023/03/05 11:37:39;;;;;;;3.30;1.27;;;;;10.40;101202.00;;;;9641361;30;20724;-79
2023/03/05 11:42:43;;;;;;;2.10;1.30;;;;;10.20;101199.00;;;;9627947;30;20265;-79
2023/03/05 11:47:49;;;;;;;3.00;1.93;;;;;9.70;101196.00;;;;9655514;30;20810;-79
2023/03/05 11:53:00;;;;;;;4.27;2.20;;;;;9.20;101195.00;;;;9627991;30;20224;-79
2023/03/05 11:58:05;;;;;;;3.67;2.70;;;;;8.90;101172.00;;;;9641042;30;20299;-79
2023/03/05 12:03:13;;;;;;;3.23;2.80;;;;;9.80;101162.00;;;;9641294;30;20287;-79
2023/03/05 12:08:24;;;;;;;3.07;2.60;;;;;9.90;101153.00;;;;9663732;30;20219;-79
2023/03/05 12:13:34;;;;;;;6.60;3.53;;;;;9.30;101139.00;;;;9654220;30;20583;-79
2023/03/05 12:18:53;;;;;;;4.00;2.70;;;;;8.90;101129.00;;;;9654788;30;20222;-80
2023/03/05 12:24:00;;;;;;;4.83;3.17;;;;;8.50;101116.00;;;;9624440;30;20207;-79
2023/03/05 12:29:02;;;;;;;4.97;3.83;;;;;8.60;101109.00;;;;9630834;30;20200;-79
2023/03/05 12:34:41;;;;;;;8.00;4.27;;;;;8.10;101104.00;;;;9654395;30;20243;-79
2023/03/05 12:39:43;;;;;;;7.07;5.10;;;;;8.00;101109.00;;;;9641285;30;20325;-79
2023/03/05 12:45:08;;;;;;;10.63;6.20;;;;;7.60;101084.00;;;;9625602;30;20227;-79
2023/03/05 12:50:26;;;;;;;4.97;4.17;;;;;7.30;101092.00;;;;9627261;30;20319;-79
2023/03/05 12:55:34;;;;;;;2.83;2.57;;;;;7.40;101082.00;;;;9628719;30;20212;-79
2023/03/05 13:00:48;;;;;;;3.20;2.13;;;;;7.50;101066.00;;;;9625040;30;20240;-79
2023/03/05 13:05:54;;;;;;;4.10;2.03;;;;;7.60;101064.00;;;;9648641;30;20208;-80
2023/03/05 13:11:00;;;;;;;4.10;2.10;;;;;7.70;101049.00;;;;9653511;30;20685;-79
2023/03/05 13:16:02;;;;;;;8.03;2.77;;;;;7.90;101050.00;;;;9616506;30;20268;-79
2023/03/05 13:21:20;;;;;;;2.87;2.67;;;;;8.20;101044.00;;;;9610433;30;20201;-79
2023/03/05 13:26:49;;;;;;;6.13;2.90;;;;;8.60;101031.00;;;;9619407;30;20606;-80
2023/03/05 13:31:55;;;;;;;5.80;3.10;;;;;8.70;101020.00;;;;9623527;30;20744;-79
2023/03/05 13:37:20;;;;;;;3.80;2.67;;;;;8.30;101018.00;;;;9652272;30;20208;-80
2023/03/05 13:42:23;;;;;;;4.57;2.40;;;;;8.00;101004.00;;;;9638292;30;20208;-80
2023/03/05 13:47:28;;;;;;;5.23;1.80;;;;;7.80;101012.00;;;;9638030;30;20681;-79
2023/03/05 13:52:33;;;;;;;3.87;1.73;;;;;7.70;100991.00;;;;9608444;30;20307;-80
2023/03/05 13:57:42;;;;;;;5.73;3.27;;;;;7.30;101000.00;;;;9610894;30;20759;-79
2023/03/05 14:02:44;;;;;;;5.50;3.93;;;;;7.40;100990.00;;;;9651572;30;20267;-80
2023/03/05 14:07:49;;;;;;;5.97;4.63;;;;;7.40;100984.00;;;;9637965;30;20201;-80
2023/03/05 14:12:51;;;;;;;4.63;4.00;;;;;7.30;100976.00;;;;9626673;30;20225;-80
2023/03/05 14:18:11;;;;;;;5.87;4.00;;;;;6.70;100980.00;;;;9626586;30;20208;-79
2023/03/05 14:23:31;;;;;;;6.40;3.83;;;;;6.50;100970.00;;;;9637819;30;20204;-79
2023/03/05 14:28:35;;;;;;;6.30;4.13;;;;;6.30;100967.00;;;;9651120;30;20346;-79
2023/03/05 14:33:39;;;;;;;5.77;4.00;;;;;6.10;100957.00;;;;9651694;30;20303;-79
2023/03/05 14:38:42;;;;;;;5.00;3.80;;;;;5.90;100952.00;;;;9637366;30;20213;-79
2023/03/05 14:43:44;;;;;;;4.53;3.17;;;;;6.20;100943.00;;;;9608797;30;20636;-80
2023/03/05 14:48:46;;;;;;;5.70;2.47;;;;;6.30;100943.00;;;;9637181;30;20299;-79
2023/03/05 14:53:49;;;;;;;2.53;2.10;;;;;6.60;100933.00;;;;9636335;30;20216;-79
2023/03/05 14:58:52;;;;;;;4.00;2.13;;;;;6.50;100924.00;;;;9643202;30;20232;-79
2023/03/05 15:03:54;;;;;;;3.53;1.97;;;;;6.40;100921.00;;;;9649484;30;20223;-79
2023/03/05 15:08:56;;;;;;;3.17;1.90;;;;;6.40;100916.00;;;;9622484;30;20208;-79
2023/03/05 15:13:58;;;;;;;2.87;2.03;;;;;6.20;100902.00;;;;9650482;30;20213;-80
2023/03/05 15:19:02;;;;;;;5.37;2.23;;;;;6.00;100901.00;;;;9621419;30;20185;-79
2023/03/05 15:24:04;;;;;;;4.43;2.70;;;;;6.10;100894.00;;;;9622406;30;20295;-80
2023/03/05 15:29:06;;;;;;;6.00;2.73;;;;;6.10;100890.00;;;;9656645;30;20620;-80
2023/03/05 15:34:08;;;;;;;7.37;3.07;;;;;6.20;100874.00;;;;9655905;30;20217;-79
2023/03/05 15:39:10;;;;;;;4.20;2.70;;;;;6.00;100868.00;;;;9647373;30;20212;-79
2023/03/05 15:44:12;;;;;;;3.90;3.07;;;;;5.90;100861.00;;;;9655056;30;20212;-79
2023/03/05 15:49:14;;;;;;;3.87;3.17;;;;;5.80;100847.00;;;;9642664;30;20192;-79
2023/03/05 15:54:17;;;;;;;6.27;3.70;;;;;5.70;100852.00;;;;9641150;30;20247;-80
2023/03/05 15:59:20;;;;;;;6.00;3.57;;;;;5.50;100843.00;;;;9655166;30;20254;-80
2023/03/05 16:04:22;;;;;;;3.70;2.83;;;;;5.40;100846.00;;;;9627434;30;20213;-79
2023/03/05 16:09:28;;;;;;;6.53;3.53;;;;;5.30;100826.00;;;;9640762;30;20211;-80
2023/03/05 16:14:31;;;;;;;3.17;2.73;;;;;5.20;100831.00;;;;9655033;30;20224;-81
2023/03/05 16:19:35;;;;;;;4.80;3.77;;;;;4.90;100821.00;;;;9641300;30;20219;-80
2023/03/05 16:24:37;;;;;;;4.67;3.40;;;;;4.80;100822.00;;;;9654864;30;20208;-80
2023/03/05 16:29:40;;;;;;;6.97;3.80;;;;;4.60;100819.00;;;;9634079;30;20209;-80
2023/03/05 16:34:42;;;;;;;6.80;4.10;;;;;4.50;100809.00;;;;9619395;30;20725;-80
2023/03/05 16:39:44;;;;;;;6.70;3.77;;;;;4.50;100811.00;;;;9639318;30;20733;-79
2023/03/05 16:44:47;;;;;;;5.33;3.10;;;;;4.40;100799.00;;;;9653908;30;20200;-80
2023/03/05 16:49:49;;;;;;;6.03;3.53;;;;;4.40;100797.00;;;;9628204;30;20209;-79
2023/03/05 16:54:51;;;;;;;5.90;3.60;;;;;4.40;100799.00;;;;9618565;30;20212;-80
2023/03/05 16:59:54;;;;;;;6.40;3.60;;;;;4.40;100800.00;;;;9618901;30;20488;-79
2023/03/05 17:04:56;;;;;;;5.60;3.17;;;;;4.30;100795.00;;;;9627616;30;20811;-79
2023/03/05 17:09:59;;;;;;;9.67;4.40;;;;;4.30;100787.00;;;;9652136;30;20212;-79
2023/03/05 17:15:01;;;;;;;7.27;4.37;;;;;4.30;100785.00;;;;9653319;30;20197;-79
2023/03/05 17:20:04;;;;;;;7.97;4.80;;;;;4.30;100785.00;;;;9648951;30;20285;-79
2023/03/05 17:25:07;;;;;;;10.33;5.17;;;;;4.30;100777.00;;;;9645393;30;20291;-79
2023/03/05 17:30:10;;;;;;;7.53;4.67;;;;;4.30;100767.00;;;;9652969;30;20402;-80
2023/03/05 17:35:17;;;;;;;7.90;5.03;;;;;4.30;100767.00;;;;9637883;30;20307;-79
2023/03/05 17:40:19;;;;;;;9.87;6.00;;;;;4.30;100770.00;;;;9652544;30;20212;-79
2023/03/05 17:45:21;;;;;;;8.43;5.27;;;;;4.30;100770.00;;;;9640475;30;20224;-79
2023/03/05 17:50:23;;;;;;;12.10;6.27;;;;;4.30;100773.00;;;;9652439;30;20220;-79
2023/03/05 17:55:25;;;;;;;12.37;6.50;;;;;4.30;100769.00;;;;9652600;30;20208;-80
2023/03/05 18:00:29;;;;;;;11.47;7.13;;;;;4.30;100769.00;;;;9659106;30;20287;-80
2023/03/05 18:05:31;;;;;;;10.97;6.53;;;;;4.30;100767.00;;;;9637411;30;20589;-80
2023/03/05 18:10:33;;;;;;;14.70;6.00;;;;;4.30;100763.00;;;;9663643;30;20279;-80
2023/03/05 18:15:37;;;;;;;11.37;6.07;;;;;4.30;100760.00;;;;9647556;30;20589;-79
2023/03/05 18:20:40;;;;;;;10.83;5.93;;;;;4.30;100750.00;;;;9636667;30;20208;-80
2023/03/05 18:25:43;;;;;;;12.00;6.80;;;;;4.30;100749.00;;;;9648707;30;20259;-80
2023/03/05 18:30:46;;;;;;;10.87;6.53;;;;;4.30;100735.00;;;;9602553;30;20232;-80
2023/03/05 18:35:50;;;;;;;8.20;5.50;;;;;4.30;100748.00;;;;9624115;30;20365;-79
2023/03/05 18:40:55;;;;;;;11.93;6.73;;;;;4.30;100746.00;;;;9637082;30;20200;-79
2023/03/05 18:45:57;;;;;;;12.27;7.03;;;;;4.30;100743.00;;;;9657375;30;20240;-79
2023/03/05 18:51:00;;;;;;;14.17;7.10;;;;;4.30;100737.00;;;;9657533;30;20220;-80
2023/03/05 18:56:03;;;;;;;13.47;6.70;;;;;4.30;100729.00;;;;9629772;30;20228;-80
2023/03/05 19:01:05;;;;;;;12.10;7.47;;;;;4.30;100723.00;;;;9657762;30;20319;-79
2023/03/05 19:06:08;;;;;;;12.40;7.60;;;;;4.30;100721.00;;;;9643113;30;20231;-79
2023/03/05 19:11:16;;;;;;;11.57;7.37;;;;;4.30;100714.00;;;;9620655;30;20279;-79
2023/03/05 19:16:21;;;;;;;14.23;9.43;;;;;4.40;100704.00;;;;9612297;30;20213;-81
2023/03/05 19:21:23;;;;;;;11.73;8.40;;;;;4.40;100707.00;;;;9624754;30;20216;-79
2023/03/05 19:26:25;;;;;;;14.53;8.47;;;;;4.40;100698.00;;;;9657204;30;20500;-80
2023/03/05 19:31:27;;;;;;;13.20;9.00;;;;;4.40;100689.00;;;;9642715;30;20236;-80
2023/03/05 19:36:31;;;;;;;13.77;8.53;;;;;4.30;100677.00;;;;9651099;30;20723;-80
2023/03/05 19:41:34;;;;;;;12.77;8.17;;;;;4.30;100682.00;;;;9650623;30;20204;-79
2023/03/05 19:46:36;;;;;;;13.47;8.50;;;;;4.30;100683.00;;;;9641559;30;20286;-80
2023/03/05 19:51:40;;;;;;;12.10;8.70;;;;;4.30;100667.00;;;;9672584;30;20208;-80
2023/03/05 19:56:44;;;;;;;15.63;9.07;;;;;4.20;100661.00;;;;9646339;30;20221;-79
2023/03/05 20:01:47;;;;;;;14.97;9.27;;;;;4.20;100667.00;;;;9620723;30;20284;-79
2023/03/05 20:06:50;;;;;;;15.93;8.87;;;;;4.20;100664.00;;;;9607881;30;20205;-79
2023/03/05 20:11:52;;;;;;;12.67;9.70;;;;;4.20;100655.00;;;;9647529;30;20224;-79
2023/03/05 20:16:54;;;;;;;20.50;9.63;;;;;4.20;100647.00;;;;9641061;30;20240;-79
2023/03/05 20:21:55;;;;;;;15.60;10.13;;;;;4.20;100646.00;;;;9626736;30;20231;-79
2023/03/05 20:26:58;;;;;;;16.57;10.30;;;;;4.10;100626.00;;;;9654743;30;20213;-79
2023/03/05 20:32:01;;;;;;;26.00;15.73;;;;;4.10;100613.00;;;;9620313;30;20244;-79
2023/03/05 20:37:04;;;;;;;14.77;9.80;;;;;4.10;100622.00;;;;9639526;30;20279;-79
2023/03/05 20:42:06;;;;;;;16.60;10.00;;;;;4.20;100631.00;;;;9626158;30;20283;-80
2023/03/05 20:47:24;;;;;;;14.97;9.70;;;;;4.10;100620.00;;;;9648594;30;20209;-79
2023/03/05 20:52:26;;;;;;;21.23;10.57;;;;;4.20;100621.00;;;;9606079;30;20228;-79
2023/03/05 20:57:29;;;;;;;16.20;10.40;;;;;4.20;100610.00;;;;9624410;30;20235;-80
2023/03/05 21:02:31;;;;;;;16.97;11.10;;;;;4.20;100599.00;;;;9618303;30;20240;-80
2023/03/05 21:07:33;;;;;;;19.73;11.27;;;;;4.10;100607.00;;;;9619053;30;20252;-80
2023/03/05 21:12:35;;;;;;;14.87;10.97;;;;;4.10;100597.00;;;;9614414;30;20220;-80
2023/03/05 21:17:38;;;;;;;18.00;11.70;;;;;4.10;100594.00;;;;9653743;30;20197;-80
2023/03/05 21:22:40;;;;;;;20.93;12.63;;;;;4.10;100588.00;;;;9639379;30;20259;-80
2023/03/05 21:27:43;;;;;;;19.10;11.67;;;;;4.10;100579.00;;;;9651332;30;20212;-80
2023/03/05 21:32:45;;;;;;;19.30;12.30;;;;;4.10;100591.00;;;;9638701;30;20302;-80
2023/03/05 21:37:47;;;;;;;20.47;12.87;;;;;4.00;100578.00;;;;9638680;30;20212;-79
2023/03/05 21:42:49;;;;;;;25.03;13.73;;;;;4.00;100562.00;;;;9646202;30;20205;-80
2023/03/05 21:47:52;;;;;;;24.47;14.47;;;;;4.00;100565.00;;;;9657972;30;20295;-79
2023/03/05 21:52:54;;;;;;;25.83;15.37;;;;;4.00;100555.00;;;;9673634;30;20253;-79
2023/03/05 21:57:56;;;;;;;24.67;15.37;;;;;4.00;100548.00;;;;9646293;30;20228;-80
2023/03/05 22:02:58;;;;;;;31.27;17.10;;;;;4.00;100539.00;;;;9637784;30;20235;-79
2023/03/05 22:08:00;;;;;;;29.93;17.73;;;;;3.90;100537.00;;;;9637280;30;20290;-80
2023/03/05 22:18:15;;;;;;;30.40;19.63;;;;;3.90;100527.00;;;;9638756;30;20211;-79
2023/03/05 22:23:21;;;;;;;31.23;18.63;;;;;3.90;100518.00;;;;9650308;30;20209;-80
2023/03/05 22:28:24;;;;;;;34.53;19.73;;;;;3.90;100500.00;;;;9650219;30;20207;-80
2023/03/05 22:33:26;;;;;;;35.67;19.90;;;;;3.90;100491.00;;;;9630199;30;20578;-80
2023/03/05 22:38:28;;;;;;;35.60;19.03;;;;;3.80;100490.00;;;;9640363;30;20550;-80
2023/03/05 22:43:30;;;;;;;41.13;21.37;;;;;3.80;100479.00;;;;9653041;30;20211;-79
2023/03/05 22:48:32;;;;;;;32.87;19.67;;;;;3.80;100476.00;;;;9681267;30;20697;-80
2023/03/05 22:53:34;;;;;;;38.73;20.57;;;;;3.80;100472.00;;;;9636481;30;20690;-80
2023/03/05 22:58:37;;;;;;;34.40;21.10;;;;;3.80;100472.00;;;;9636792;30;20240;-79
2023/03/05 23:03:40;;;;;;;34.77;20.80;;;;;3.80;100468.00;;;;9662919;30;20262;-79
2023/03/05 23:08:42;;;;;;;34.20;20.63;;;;;3.80;100469.00;;;;9653841;30;20315;-79
2023/03/05 23:13:44;;;;;;;32.13;19.93;;;;;3.80;100467.00;;;;9657244;30;20216;-80
2023/03/05 23:18:46;;;;;;;33.70;21.00;;;;;3.70;100455.00;;;;9629347;30;20205;-80
2023/03/05 23:23:48;;;;;;;32.00;19.87;;;;;3.70;100454.00;;;;9631178;30;20235;-80
2023/03/05 23:28:50;;;;;;;38.30;19.80;;;;;3.70;100455.00;;;;9642754;30;20205;-79
2023/03/05 23:33:52;;;;;;;35.80;19.80;;;;;3.70;100454.00;;;;9627825;30;20734;-79
2023/03/05 23:38:56;;;;;;;33.60;19.90;;;;;3.70;100456.00;;;;9654447;30;20259;-79
2023/03/05 23:43:58;;;;;;;33.87;21.37;;;;;3.60;100440.00;;;;9654757;30;20210;-79
2023/03/05 23:49:00;;;;;;;36.63;20.63;;;;;3.60;100430.00;;;;9667235;30;20295;-79
2023/03/05 23:54:02;;;;;;;36.57;21.57;;;;;3.60;100425.00;;;;9615040;30;20236;-80
2023/03/05 23:59:04;;;;;;;34.57;21.57;;;;;3.60;100418.00;;;;9658253;30;20321;-79
